Latest Weather Observations for Scherger

IDQ60801

Issued at 8:32 pm EST Thursday 26 May 2016 (issued every 30 minutes, with the page automatically refreshed every 10 minutes)

About weather observations | Map of weather stations | Latest weather observations for QLD | Other Formats
Station Details ID: 027075 Name: SCHERGER RAAF Lat: -12.62 Lon: 142.09 Height: 39.34 m
Data from the previous 72 hours. | See also: Recent months at Scherger
Date/Time
EST
Temp
°C
App
Temp
°C
Dew
Point
Rel
Hum
%
Delta-T
°C
Wind Press
QNH
hPa
Press
MSL
hPa
Rain
since 9 am
mm
Dir
 
Spd
km/h
Gust
km/h
Spd
kts
Gust
kts
26/08:30pm 27.5 31.4 22.9 76 3.1 ENE 7 11 4 6 1013.2 1013.0 0.0
26/08:00pm 27.5 31.7 23.1 77 3.0 ENE 6 9 3 5 1012.8 1012.6 0.0
26/07:30pm 27.6 32.7 23.4 78 2.9 ENE 2 7 1 4 1012.3 1012.1 0.0
26/07:00pm 27.6 33.0 23.2 77 3.0 CALM 0 0 0 0 1011.7 1011.5 0.0
26/06:30pm 28.1 33.5 23.2 74 3.4 CALM 0 0 0 0 1011.2 1011.0 0.0
26/06:00pm 29.4 33.5 22.9 68 4.4 NE 6 9 3 5 1010.9 1010.7 0.0
26/05:30pm 31.0 34.9 22.6 61 5.7 ESE 6 11 3 6 1010.7 1010.5 0.0
26/05:00pm 32.0 35.6 22.4 57 6.6 SE 7 11 4 6 1010.6 1010.4 0.0
26/04:30pm 31.9 35.6 22.6 58 6.4 ESE 7 15 4 8 1010.4 1010.2 0.0
26/04:00pm 33.0 36.2 22.4 53 7.3 ESE 9 13 5 7 1010.3 1010.1 0.0
26/03:30pm 33.3 36.0 22.1 52 7.7 ENE 11 20 6 11 1010.6 1010.4 0.0
26/03:00pm 32.3 35.5 22.4 56 6.8 SE 9 15 5 8 1010.8 1010.6 0.0
26/02:30pm 33.5 37.0 22.9 53 7.3 ENE 9 17 5 9 1011.1 1010.9 0.0
26/02:00pm 33.3 36.9 23.0 54 7.1 ESE 9 15 5 8 1011.5 1011.3 0.0
26/01:30pm 33.9 38.0 23.9 56 7.0 E 9 15 5 8 1012.0 1011.8 0.0
26/01:00pm 31.6 35.8 23.4 61 5.7 ESE 7 11 4 6 1012.5 1012.3 0.0
26/12:30pm 31.0 34.2 23.1 63 5.4 ENE 11 20 6 11 1013.2 1013.0 0.0
26/12:00pm 31.0 34.2 23.1 63 5.4 ENE 11 19 6 10 1013.6 1013.4 0.0
26/11:30am 30.3 34.1 23.5 67 4.7 E 9 19 5 10 1014.1 1013.9 0.0
26/11:00am 30.2 33.4 23.1 65 4.9 E 11 22 6 12 1014.4 1014.2 0.0
26/10:30am 29.2 32.3 22.9 69 4.3 E 11 24 6 13 1014.8 1014.6 0.0
26/10:00am 29.4 32.3 23.1 69 4.3 ESE 13 20 7 11 1014.8 1014.6 0.0
26/09:30am 28.8 33.0 23.5 73 3.6 E 7 13 4 7 1014.8 1014.6 0.0
26/09:00am 27.6 31.8 23.4 78 2.9 E 7 13 4 7 1014.9 1014.7 0.0
26/08:30am 26.0 30.1 23.3 85 1.8 SE 7 13 4 7 1014.6 1014.4 0.0
26/08:00am 24.4 29.3 23.0 92 0.9 SSE 2 9 1 5 1014.2 1014.0 0.0
26/07:30am 23.3 28.2 22.3 94 0.7 CALM 0 0 0 0 1013.7 1013.5 0.0
26/07:00am 22.7 27.2 21.5 93 0.8 CALM 0 0 0 0 1013.5 1013.3 0.0
26/06:30am 22.6 27.0 21.4 93 0.8 CALM 0 0 0 0 1013.3 1013.1 0.0
26/06:00am 22.9 27.5 21.7 93 0.8 CALM 0 0 0 0 1012.9 1012.7 0.0
26/05:30am 23.0 27.6 21.8 93 0.8 CALM 0 0 0 0 1012.8 1012.6 0.0
26/05:00am 23.0 27.6 21.8 93 0.8 CALM 0 0 0 0 1012.6 1012.4 0.0
26/04:30am 22.8 27.2 21.4 92 0.9 CALM 0 0 0 0 1012.5 1012.3 0.0
26/04:00am 23.0 27.6 21.8 93 0.8 CALM 0 0 0 0 1012.3 1012.1 0.0
26/03:30am 22.9 27.3 21.4 91 1.0 CALM 0 0 0 0 1012.1 1011.9 0.0
26/03:00am 23.2 27.7 21.6 91 1.1 CALM 0 0 0 0 1012.1 1011.9 0.0
26/02:30am 23.4 28.0 21.8 91 1.1 CALM 0 0 0 0 1012.4 1012.2 0.0
26/02:00am 23.5 28.1 21.8 90 1.1 CALM 0 0 0 0 1012.6 1012.4 0.0
26/01:30am 23.7 28.3 21.8 89 1.3 CALM 0 0 0 0 1012.7 1012.5 0.0
26/01:00am 24.0 28.8 22.1 89 1.3 CALM 0 0 0 0 1012.8 1012.6 0.0
26/12:30am 24.2 28.9 21.9 87 1.5 CALM 0 0 0 0 1012.9 1012.7 0.0
26/12:00am 24.7 29.5 22.2 86 1.7 CALM 0 6 0 3 1013.1 1012.9 0.0
 
Date/Time
EST
Temp
°C
App
Temp
°C
Dew
Point
Rel
Hum
%
Delta-T
°C
Wind Press
QNH
hPa
Press
MSL
hPa
Rain
since 9 am
mm
Dir
 
Spd
km/h
Gust
km/h
Spd
kts
Gust
kts
25/11:30pm 24.8 29.7 22.3 86 1.7 CALM 0 0 0 0 1013.0 1012.8 0.0
25/11:00pm 25.3 29.5 22.4 84 1.9 ESE 4 9 2 5 1013.3 1013.1 0.0
25/10:30pm 25.3 29.3 22.8 86 1.7 ESE 6 11 3 6 1013.4 1013.2 0.0
25/10:00pm 25.5 30.5 23.2 87 1.6 ESE 2 9 1 5 1013.3 1013.1 0.0
25/09:30pm 25.5 30.9 23.2 87 1.6 CALM 0 0 0 0 1013.2 1013.0 0.0
25/09:00pm 25.5 30.9 23.2 87 1.6 CALM 0 0 0 0 1013.0 1012.8 0.0
25/08:30pm 25.7 31.2 23.4 87 1.6 CALM 0 0 0 0 1012.7 1012.5 0.0
25/08:00pm 25.9 31.4 23.4 86 1.7 CALM 0 0 0 0 1012.4 1012.2 0.0
25/07:30pm 26.3 31.7 23.2 83 2.1 CALM 0 0 0 0 1011.9 1011.7 0.0
25/07:00pm 26.8 32.4 23.5 82 2.3 CALM 0 0 0 0 1011.6 1011.4 0.0
25/06:30pm 27.6 32.9 23.0 76 3.1 CALM 0 0 0 0 1011.4 1011.2 0.0
25/06:00pm 28.5 33.9 23.2 73 3.6 CALM 0 0 0 0 1011.1 1010.9 0.0
25/05:30pm 28.8 33.4 23.2 71 3.8 E 4 9 2 5 1010.5 1010.3 0.0
25/05:00pm 29.1 33.1 23.1 70 4.1 E 7 13 4 7 1010.4 1010.2 0.0
25/04:30pm 29.6 33.8 23.5 69 4.2 E 7 19 4 10 1010.3 1010.1 0.0
25/04:00pm 29.6 33.2 23.1 68 4.5 ESE 9 17 5 9 1010.3 1010.1 0.0
25/03:30pm 30.4 34.1 23.3 66 4.9 ENE 9 15 5 8 1010.3 1010.1 0.0
25/03:00pm 30.6 33.9 22.5 62 5.5 E 9 15 5 8 1010.6 1010.4 0.0
25/02:30pm 31.7 34.6 22.4 58 6.4 NE 11 20 6 11 1010.6 1010.4 0.0
25/02:00pm 31.7 34.6 22.4 58 6.4 ENE 11 15 6 8 1011.1 1010.9 0.0
25/01:30pm 31.1 34.7 23.0 62 5.6 ESE 9 17 5 9 1011.5 1011.3 0.0
25/01:00pm 30.8 33.5 22.1 59 5.9 E 11 17 6 9 1012.1 1011.9 0.0
25/12:30pm 31.1 33.7 22.7 61 5.8 ENE 13 22 7 12 1012.6 1012.4 0.0
25/12:00pm 30.7 34.0 22.6 62 5.5 E 9 19 5 10 1012.9 1012.7 0.0
25/11:30am 30.2 32.9 22.9 65 5.0 E 13 20 7 11 1013.3 1013.1 0.0
25/11:00am 29.9 33.0 22.9 66 4.8 E 11 19 6 10 1013.4 1013.2 0.0
25/10:30am 29.3 32.5 23.0 69 4.3 ESE 11 17 6 9 1013.8 1013.6 0.0
25/10:00am 28.4 30.8 22.9 72 3.8 E 15 24 8 13 1013.7 1013.5 0.0
25/09:30am 27.6 30.5 22.5 74 3.5 E 11 17 6 9 1013.5 1013.3 0.0
25/09:00am 26.6 30.5 22.9 80 2.5 ESE 7 13 4 7 1013.3 1013.1 0.8
25/08:30am 24.7 28.4 22.6 88 1.4 SE 7 11 4 6 1013.2 1013.0 0.8
25/08:00am 24.1 28.3 22.5 91 1.1 SSE 4 7 2 4 1013.2 1013.0 0.8
25/07:30am 23.5 28.2 21.9 91 1.1 CALM 0 0 0 0 1012.7 1012.5 0.8
25/07:00am 23.2 27.7 21.6 91 1.1 CALM 0 0 0 0 1012.4 1012.2 0.8
25/06:30am 23.5 27.7 21.8 90 1.1 SE 2 7 1 4 1012.0 1011.8 0.8
25/06:00am 23.8 28.5 21.9 89 1.3 CALM 0 4 0 2 1011.7 1011.5 0.8
25/05:30am 23.6 28.2 21.7 89 1.3 CALM 0 0 0 0 1011.6 1011.4 0.8
25/05:00am 23.9 27.4 21.8 88 1.4 SSE 6 9 3 5 1011.5 1011.3 0.8
25/04:30am 24.0 27.5 21.9 88 1.4 ESE 6 9 3 5 1011.4 1011.2 0.8
25/04:00am 23.9 27.4 21.8 88 1.4 E 6 9 3 5 1011.5 1011.3 0.8
25/03:30am 24.0 27.4 21.7 87 1.5 SE 6 9 3 5 1011.7 1011.5 0.8
25/03:00am 24.5 28.1 22.0 86 1.7 SE 6 9 3 5 1012.0 1011.8 0.8
25/02:30am 24.5 28.0 21.8 85 1.8 SE 6 13 3 7 1012.3 1012.1 0.8
25/02:00am 24.2 27.6 21.7 86 1.7 SE 6 11 3 6 1012.4 1012.2 0.8
25/01:30am 24.4 27.8 21.7 85 1.8 SE 6 9 3 5 1012.6 1012.4 0.8
25/01:00am 24.3 28.7 21.4 84 1.9 CALM 0 7 0 4 1012.8 1012.6 0.8
25/12:30am 24.5 28.2 21.4 83 2.0 ESE 4 7 2 4 1013.1 1012.9 0.8
25/12:00am 24.7 28.4 21.4 82 2.2 ESE 4 9 2 5 1013.3 1013.1 0.8
 
Date/Time
EST
Temp
°C
App
Temp
°C
Dew
Point
Rel
Hum
%
Delta-T
°C
Wind Press
QNH
hPa
Press
MSL
hPa
Rain
since 9 am
mm
Dir
 
Spd
km/h
Gust
km/h
Spd
kts
Gust
kts
24/11:30pm 25.1 29.1 21.4 80 2.5 E 2 9 1 5 1013.7 1013.5 0.8
24/11:00pm 25.5 28.8 21.4 78 2.7 ENE 6 9 3 5 1013.8 1013.6 0.8
24/10:30pm 25.8 28.6 21.5 77 2.9 ESE 9 17 5 9 1013.6 1013.4 0.8
24/10:00pm 25.6 29.5 21.1 76 3.0 E 2 7 1 4 1013.7 1013.5 0.8
24/09:30pm 26.2 28.8 21.2 74 3.3 ESE 9 17 5 9 1013.3 1013.1 0.8
24/09:00pm 26.3 29.0 21.3 74 3.3 ESE 9 13 5 7 1013.3 1013.1 0.8
24/08:30pm 26.5 29.2 21.3 73 3.5 ESE 9 13 5 7 1013.2 1013.0 0.8
24/08:00pm 26.6 29.3 21.4 73 3.5 ESE 9 13 5 7 1013.1 1012.9 0.8
24/07:30pm 26.4 29.5 21.4 74 3.3 SE 7 11 4 6 1012.2 1012.0 0.8
24/07:00pm 27.0 30.0 21.3 71 3.8 SE 7 13 4 7 1011.8 1011.6 0.8
24/06:30pm 27.5 30.8 21.8 71 3.8 SE 7 17 4 9 1011.1 1010.9 0.8
24/06:00pm 28.1 31.8 22.6 72 3.7 E 7 11 4 6 1010.5 1010.3 0.8
24/05:30pm 28.6 33.0 22.8 71 4.0 ESE 4 7 2 4 1010.2 1010.0 0.8
24/05:00pm 29.1 33.1 22.8 69 4.3 ENE 6 9 3 5 1009.8 1009.6 0.8
24/04:30pm 29.4 33.1 22.6 67 4.6 ESE 7 11 4 6 1009.8 1009.6 0.8
24/04:00pm 29.8 33.1 22.5 65 5.0 ESE 9 20 5 11 1009.8 1009.6 0.8
24/03:30pm 30.3 33.4 22.2 62 5.5 ENE 9 17 5 9 1010.2 1010.0 0.8
24/03:00pm 30.3 34.0 22.5 63 5.3 E 7 13 4 7 1010.4 1010.2 0.8
24/02:30pm 30.5 32.5 21.6 59 6.0 E 13 24 7 13 1010.6 1010.4 0.8
24/02:00pm 30.8 32.8 21.6 58 6.2 ENE 13 20 7 11 1010.8 1010.6 0.8
24/01:30pm 31.7 34.2 22.4 58 6.4 ENE 13 20 7 11 1011.5 1011.3 0.8
24/01:00pm 31.1 33.6 22.4 60 5.9 ENE 13 24 7 13 1012.1 1011.9 0.8
24/12:30pm 31.6 34.1 23.2 61 5.8 ENE 15 28 8 15 1012.6 1012.4 0.8
24/12:00pm 31.5 33.4 22.8 60 6.0 NE 17 26 9 14 1012.9 1012.7 0.8
24/11:30am 30.9 33.7 23.0 62 5.4 E 13 26 7 14 1013.5 1013.3 0.8
24/11:00am 29.9 33.1 23.1 67 4.7 E 11 17 6 9 1014.0 1013.8 0.8
24/10:30am 28.2 30.3 22.4 71 3.9 E 15 24 8 13 1014.1 1013.9 0.6
24/10:00am 29.0 31.9 23.2 71 4.0 ENE 13 20 7 11 1014.0 1013.8 0.4
24/09:30am 26.9 30.3 22.7 78 2.8 ENE 9 19 5 10 1013.9 1013.7 0.2
24/09:24am 27.0 30.4 23.3 80 2.5 ENE 11 19 6 10 1013.9 1013.7 0.2
24/09:00am 26.6 29.1 22.4 78 2.8 E 13 20 7 11 1013.6 1013.4 22.2
24/08:53am 27.1 29.8 22.9 78 2.9 E 13 20 7 11 1013.4 1013.2 22.0
24/08:30am 26.0 30.0 23.7 87 1.6 E 9 15 5 8 1013.3 1013.1 22.0
24/08:00am 24.7 28.7 22.8 89 1.3 E 6 11 3 6 1013.0 1012.8 21.6
24/07:30am 24.2 28.1 22.5 90 1.1 ESE 6 11 3 6 1012.7 1012.5 21.4
24/07:00am 23.7 28.1 22.1 91 1.1 ESE 2 7 1 4 1012.3 1012.1 21.2
24/06:30am 23.6 28.3 22.0 91 1.1 CALM 0 0 0 0 1012.4 1012.2 20.8
24/06:09am 23.8 27.5 22.2 91 1.1 E 6 9 3 5 1012.3 1012.1 20.6
24/06:00am 23.9 27.6 22.3 91 1.1 ESE 6 9 3 5 1012.2 1012.0 20.6
24/05:30am 23.8 28.0 22.4 92 0.9 SE 4 7 2 4 1011.8 1011.6 20.2
24/05:00am 23.6 26.7 22.2 92 0.9 ESE 9 13 5 7 1011.3 1011.1 20.0
24/04:30am 23.6 28.1 22.2 92 0.9 S 2 7 1 4 1011.8 1011.6 19.6
24/04:00am 23.5 27.9 22.1 92 0.9 SE 2 6 1 3 1011.6 1011.4 19.2
24/03:33am 23.3 27.6 21.9 92 0.9 SE 2 7 1 4 1011.7 1011.5 19.0
24/03:30am 23.3 28.0 21.9 92 0.9 CALM 0 6 0 3 1011.8 1011.6 18.8
24/03:00am 23.2 27.7 21.6 91 1.1 CALM 0 0 0 0 1011.8 1011.6 18.4
24/02:30am 23.4 28.0 21.8 91 1.1 CALM 0 0 0 0 1012.0 1011.8 18.0
24/02:00am 23.6 28.3 21.9 90 1.1 CALM 0 0 0 0 1012.3 1012.1 17.6
24/01:30am 23.7 28.0 22.0 90 1.1 SE 2 11 1 6 1012.4 1012.2 17.2
24/01:00am 23.7 28.0 22.0 90 1.1 ESE 2 6 1 3 1012.5 1012.3 16.8
24/12:30am 23.7 28.0 22.0 90 1.1 ESE 2 9 1 5 1012.5 1012.3 16.2
24/12:00am 23.7 28.0 22.0 90 1.1 ESE 2 6 1 3 1012.7 1012.5 15.8
 
Date/Time
EST
Temp
°C
App
Temp
°C
Dew
Point
Rel
Hum
%
Delta-T
°C
Wind Press
QNH
hPa
Press
MSL
hPa
Rain
since 9 am
mm
Dir
 
Spd
km/h
Gust
km/h
Spd
kts
Gust
kts
23/11:30pm 23.7 28.0 22.0 90 1.1 E 2 7 1 4 1012.7 1012.5 15.2
23/11:00pm 23.8 28.6 22.1 90 1.1 CALM 0 4 0 2 1012.9 1012.7 14.8
23/10:30pm 24.1 28.2 22.2 89 1.3 ESE 4 9 2 5 1013.0 1012.8 14.2
23/10:00pm 24.3 27.8 22.2 88 1.4 E 7 11 4 6 1013.0 1012.8 13.6
23/09:30pm 24.6 28.1 22.1 86 1.7 SE 7 11 4 6 1012.9 1012.7 13.0
23/09:00pm 25.0 28.2 22.3 85 1.8 ESE 9 19 5 10 1012.6 1012.4 12.2

Other Formats:

Comma delimited format used in spreadsheet applications
http://www.bom.gov.au/fwo/IDQ60801/IDQ60801.94171.axf

JavaScript Object Notation format (JSON) in row-major order
http://www.bom.gov.au/fwo/IDQ60801/IDQ60801.94171.json